Time;durP1;ratioP1;P1;durP2;ratioP2;P2;SDS_P1;SDS_P2;PMS_P1;PMS_P2;Temp;Humidity;BMP_temperature;BMP_pressure;BME280_temperature;BME280_humidity;BME280_pressure;Samples;Min_cycle;Max_cycle;Signal;HPM_P1;HPM_P2
2024/01/08 00:00:55;;;;;;;6.30;2.08;;;;;;;-2.46;100.00;103137.38;4944757;29;20201;-46
2024/01/08 00:03:20;;;;;;;5.47;2.05;;;;;;;-2.45;100.00;103150.56;4943465;29;20581;-47
2024/01/08 00:05:46;;;;;;;3.85;1.98;;;;;;;-2.44;100.00;103148.84;4939988;29;20207;-45
2024/01/08 00:08:11;;;;;;;6.22;2.13;;;;;;;-2.47;100.00;103151.31;4948048;29;20194;-45
2024/01/08 00:10:39;;;;;;;4.07;2.25;;;;;;;-2.47;100.00;103169.66;4942540;29;20464;-47
2024/01/08 00:13:05;;;;;;;3.45;1.80;;;;;;;-2.45;100.00;103155.81;4942163;29;20570;-46
2024/01/08 00:15:30;;;;;;;4.00;1.70;;;;;;;-2.45;100.00;103150.56;4946765;29;20182;-48
2024/01/08 00:17:56;;;;;;;4.93;1.75;;;;;;;-2.43;100.00;103161.16;4943190;29;20190;-46
2024/01/08 00:20:21;;;;;;;6.18;2.40;;;;;;;-2.47;100.00;103159.16;4943308;29;20230;-46
2024/01/08 00:22:47;;;;;;;2.13;1.63;;;;;;;-2.47;100.00;103164.41;4942984;29;20191;-46
2024/01/08 00:25:12;;;;;;;3.80;1.92;;;;;;;-2.47;100.00;103159.16;4941641;29;20562;-45
2024/01/08 00:27:38;;;;;;;5.38;2.63;;;;;;;-2.46;100.00;103159.25;4942084;29;20201;-47
2024/01/08 00:30:04;;;;;;;2.85;1.70;;;;;;;-2.49;100.00;103151.25;4944345;29;20207;-46
2024/01/08 00:32:29;;;;;;;4.97;1.90;;;;;;;-2.51;100.00;103164.28;4946183;29;20217;-47
2024/01/08 00:34:55;;;;;;;2.28;2.00;;;;;;;-2.49;100.00;103161.75;4940772;29;22084;-49
2024/01/08 00:37:20;;;;;;;2.75;1.67;;;;;;;-2.50;100.00;103166.06;4944041;29;20187;-46
2024/01/08 00:39:46;;;;;;;3.55;1.65;;;;;;;-2.47;100.00;103167.03;4922948;29;20289;-46
2024/01/08 00:42:11;;;;;;;4.53;1.88;;;;;;;-2.47;100.00;103154.84;4945202;29;20183;-47
2024/01/08 00:44:37;;;;;;;2.60;1.90;;;;;;;-2.44;100.00;103167.22;4943635;29;20269;-44
2024/01/08 00:47:02;;;;;;;3.63;1.92;;;;;;;-2.30;100.00;103179.34;4940656;29;20199;-47
2024/01/08 00:49:28;;;;;;;4.70;1.50;;;;;;;-2.21;100.00;103186.78;4944506;29;20210;-47
2024/01/08 00:51:53;;;;;;;4.35;1.63;;;;;;;-2.23;100.00;103177.94;4942347;29;21128;-46
2024/01/08 00:54:19;;;;;;;5.13;2.10;;;;;;;-2.24;100.00;103184.91;4945228;29;20588;-45
2024/01/08 00:56:44;;;;;;;6.05;2.15;;;;;;;-2.32;100.00;103173.09;4942759;29;20183;-44
2024/01/08 00:59:10;;;;;;;5.00;1.95;;;;;;;-2.34;100.00;103170.41;4942584;29;20270;-45
2024/01/08 01:01:35;;;;;;;5.82;1.90;;;;;;;-2.36;100.00;103173.75;4942318;29;20629;-44
2024/01/08 01:04:01;;;;;;;4.35;1.60;;;;;;;-2.35;100.00;103173.84;4943974;28;20246;-47
2024/01/08 01:06:26;;;;;;;2.75;1.50;;;;;;;-2.36;100.00;103174.69;4942736;29;20654;-47
2024/01/08 01:08:52;;;;;;;6.07;2.08;;;;;;;-2.35;100.00;103188.72;4943365;29;20194;-45
2024/01/08 01:11:17;;;;;;;4.72;1.70;;;;;;;-2.26;100.00;103173.44;4939806;29;20195;-47
2024/01/08 01:13:43;;;;;;;5.72;1.98;;;;;;;-2.23;100.00;103193.69;4944798;29;20278;-45
2024/01/08 01:16:08;;;;;;;4.88;1.98;;;;;;;-2.20;100.00;103192.13;4944656;29;20270;-48
2024/01/08 01:18:34;;;;;;;2.70;1.60;;;;;;;-2.16;100.00;103194.09;4941428;29;20205;-46
2024/01/08 01:21:00;;;;;;;4.53;1.85;;;;;;;-2.13;100.00;103182.84;4930228;29;20198;-45
2024/01/08 01:23:25;;;;;;;4.13;1.90;;;;;;;-2.12;100.00;103174.13;4943477;29;20277;-45
2024/01/08 01:25:51;;;;;;;5.90;1.80;;;;;;;-2.15;100.00;103193.28;4940533;29;20215;-45
2024/01/08 01:28:16;;;;;;;4.22;1.42;;;;;;;-2.16;100.00;103188.84;4927390;29;20191;-44
2024/01/08 01:30:42;;;;;;;5.43;1.80;;;;;;;-2.09;100.00;103196.22;4945381;29;20326;-46
2024/01/08 01:33:07;;;;;;;2.88;1.52;;;;;;;-2.07;100.00;103201.56;4943006;29;20192;-45
2024/01/08 01:35:33;;;;;;;3.25;1.55;;;;;;;-2.13;100.00;103207.38;4941383;29;20346;-46
2024/01/08 01:37:58;;;;;;;5.55;1.90;;;;;;;-2.13;100.00;103199.50;4937418;29;20195;-47
2024/01/08 01:40:25;;;;;;;5.97;1.40;;;;;;;-2.17;100.00;103208.03;4936460;29;20195;-45
2024/01/08 01:42:54;;;;;;;5.55;1.63;;;;;;;-2.15;100.00;103206.41;4943802;29;20184;-45
2024/01/08 01:45:21;;;;;;;3.42;1.83;;;;;;;-2.12;100.00;103203.94;4941692;29;20199;-45
2024/01/08 01:47:48;;;;;;;4.95;2.03;;;;;;;-2.12;100.00;103196.06;4943604;29;20190;-45
2024/01/08 01:50:14;;;;;;;3.58;1.45;;;;;;;-2.07;100.00;103197.19;4936333;29;20286;-47
2024/01/08 01:52:41;;;;;;;3.90;1.67;;;;;;;-2.03;100.00;103199.97;4942205;29;20269;-46
2024/01/08 01:55:08;;;;;;;3.25;2.17;;;;;;;-2.01;100.00;103194.00;4943918;29;20214;-48
2024/01/08 01:57:34;;;;;;;4.18;1.65;;;;;;;-2.02;100.00;103192.19;4941345;29;20175;-44
2024/01/08 02:00:00;;;;;;;4.50;1.63;;;;;;;-1.98;100.00;103195.88;4927872;29;20203;-45
2024/01/08 02:02:27;;;;;;;5.53;1.65;;;;;;;-1.94;99.18;103184.72;4942682;29;20253;-47
2024/01/08 02:04:57;;;;;;;6.75;1.90;;;;;;;-1.94;99.68;103197.84;4942464;29;20257;-46
2024/01/08 02:07:22;;;;;;;2.00;1.60;;;;;;;-1.99;99.39;103192.34;4939557;29;20223;-45
2024/01/08 02:09:48;;;;;;;5.38;1.52;;;;;;;-1.97;99.42;103190.72;4939729;29;20726;-48
2024/01/08 02:12:17;;;;;;;4.55;1.70;;;;;;;-1.97;99.43;103179.28;4942788;29;20199;-46
2024/01/08 02:14:46;;;;;;;2.22;1.23;;;;;;;-1.94;98.49;103182.09;4941154;29;20215;-46
2024/01/08 02:17:12;;;;;;;7.38;1.63;;;;;;;-1.95;98.45;103189.03;4934955;29;20214;-45
2024/01/08 02:19:38;;;;;;;4.38;1.65;;;;;;;-1.94;97.92;103169.84;4939413;29;20233;-46
2024/01/08 02:22:03;;;;;;;3.92;1.60;;;;;;;-1.97;97.68;103185.47;4939224;29;20198;-47
2024/01/08 02:24:29;;;;;;;2.97;1.48;;;;;;;-1.95;98.06;103188.16;4940929;29;20246;-47
2024/01/08 02:26:57;;;;;;;4.72;1.92;;;;;;;-1.95;97.44;103181.16;4940878;29;20183;-47
2024/01/08 02:29:24;;;;;;;3.45;1.58;;;;;;;-1.97;97.25;103193.34;4925477;29;20203;-48
2024/01/08 02:31:50;;;;;;;3.65;1.60;;;;;;;-1.95;96.90;103194.28;4938935;29;20545;-46
2024/01/08 02:34:15;;;;;;;2.40;1.45;;;;;;;-1.94;96.82;103192.59;4939244;29;20209;-45
2024/01/08 02:36:41;;;;;;;3.28;1.80;;;;;;;-1.97;96.86;103190.72;4943331;29;20178;-46
2024/01/08 02:39:06;;;;;;;3.38;1.67;;;;;;;-1.96;97.27;103188.97;4943393;29;20187;-46
2024/01/08 02:41:32;;;;;;;6.85;1.77;;;;;;;-1.97;97.09;103189.78;4942749;29;20266;-46
2024/01/08 02:43:57;;;;;;;2.58;1.45;;;;;;;-1.95;97.21;103188.16;4945196;29;20206;-44
2024/01/08 02:46:23;;;;;;;8.30;2.75;;;;;;;-1.97;97.25;103193.34;4940458;29;20247;-46
2024/01/08 02:48:48;;;;;;;4.13;1.50;;;;;;;-1.98;97.23;103201.13;4938901;29;20191;-47
2024/01/08 02:51:15;;;;;;;4.93;1.70;;;;;;;-1.97;96.85;103195.97;4938515;29;20194;-46
2024/01/08 02:53:40;;;;;;;4.97;1.67;;;;;;;-2.01;96.90;103200.97;4940259;29;20293;-44
2024/01/08 02:56:06;;;;;;;2.95;2.13;;;;;;;-1.98;96.81;103198.50;4942762;29;20270;-45
2024/01/08 02:58:31;;;;;;;3.95;1.73;;;;;;;-2.01;96.55;103198.34;4938197;29;20760;-44
2024/01/08 03:00:59;;;;;;;4.80;1.60;;;;;;;-1.94;96.33;103192.59;4940131;29;20195;-46
2024/01/08 03:03:25;;;;;;;2.28;1.75;;;;;;;-1.99;96.34;103189.72;4937057;29;20191;-44
2024/01/08 03:05:51;;;;;;;3.22;1.80;;;;;;;-1.97;96.14;103195.97;4919570;29;20592;-45
2024/01/08 03:08:16;;;;;;;6.10;2.03;;;;;;;-1.98;96.38;103198.50;4935840;29;20677;-45
2024/01/08 03:10:42;;;;;;;3.28;1.63;;;;;;;-1.99;96.52;103208.13;4942052;29;20257;-48
2024/01/08 03:13:07;;;;;;;4.68;1.80;;;;;;;-1.95;96.98;103207.44;4942931;29;20197;-45
2024/01/08 03:15:33;;;;;;;7.10;2.08;;;;;;;-2.00;97.50;103200.16;4937141;29;20198;-44
2024/01/08 03:17:58;;;;;;;3.30;1.90;;;;;;;-2.07;97.09;103202.47;4939870;29;20660;-45
2024/01/08 03:20:24;;;;;;;4.88;2.13;;;;;;;-2.09;98.20;103222.47;4938206;29;20191;-46
2024/01/08 03:22:51;;;;;;;4.05;1.92;;;;;;;-2.11;98.17;103213.63;4941677;29;20182;-46
2024/01/08 03:25:16;;;;;;;5.88;1.88;;;;;;;-2.08;98.92;103220.75;4939796;29;20279;-45
2024/01/08 03:27:42;;;;;;;7.47;2.30;;;;;;;-2.11;99.13;103217.97;4938862;28;20655;-44
2024/01/08 03:30:08;;;;;;;3.20;1.80;;;;;;;-2.07;99.53;103225.19;4940292;29;20653;-46
2024/01/08 03:32:33;;;;;;;4.22;2.03;;;;;;;-2.06;100.00;103234.88;4940885;29;20197;-44
2024/01/08 03:34:59;;;;;;;4.10;2.08;;;;;;;-2.10;100.00;103235.53;4936126;29;20572;-46
2024/01/08 03:37:24;;;;;;;3.72;1.98;;;;;;;-2.09;99.89;103235.63;4942177;29;20218;-46
2024/01/08 03:39:50;;;;;;;3.72;1.92;;;;;;;-2.11;100.00;103246.88;4943680;29;20186;-46
2024/01/08 03:42:15;;;;;;;4.50;1.67;;;;;;;-2.09;100.00;103239.97;4943317;29;20178;-44
2024/01/08 03:44:41;;;;;;;3.72;1.83;;;;;;;-2.12;100.00;103247.66;4940468;29;20232;-46
2024/01/08 03:47:07;;;;;;;5.10;2.13;;;;;;;-2.13;100.00;103243.25;4940009;29;20189;-46
2024/01/08 03:49:32;;;;;;;4.32;2.00;;;;;;;-2.13;100.00;103254.66;4938694;29;20225;-46
2024/01/08 03:51:58;;;;;;;7.75;2.13;;;;;;;-2.12;100.00;103259.09;4938935;29;20239;-45
2024/01/08 03:54:24;;;;;;;3.90;2.03;;;;;;;-2.10;100.00;103260.09;4940472;29;20693;-45
2024/01/08 03:56:49;;;;;;;3.88;2.00;;;;;;;-2.08;100.00;103260.16;4939215;29;20237;-47
2024/01/08 03:59:15;;;;;;;2.55;2.10;;;;;;;-2.08;100.00;103263.72;4940810;29;20195;-48
2024/01/08 04:01:45;;;;;;;4.65;2.50;;;;;;;-2.08;100.00;103258.44;4942771;29;20653;-44
2024/01/08 04:04:11;;;;;;;4.53;1.80;;;;;;;-2.06;100.00;103271.63;4938117;29;20270;-48
2024/01/08 04:06:37;;;;;;;5.07;1.90;;;;;;;-2.03;100.00;103263.94;4940545;29;20464;-46
2024/01/08 04:09:03;;;;;;;2.65;1.90;;;;;;;-2.01;100.00;103272.81;4936896;29;20216;-46
2024/01/08 04:11:29;;;;;;;4.95;1.80;;;;;;;-1.98;100.00;103256.31;4939203;29;20186;-47
2024/01/08 04:13:55;;;;;;;4.85;1.77;;;;;;;-1.99;100.00;103270.25;4938546;29;20297;-46
2024/01/08 04:16:20;;;;;;;3.50;1.60;;;;;;;-1.97;100.00;103268.59;4940046;29;20266;-46
2024/01/08 04:18:46;;;;;;;7.82;1.90;;;;;;;-1.99;100.00;103283.38;4941616;29;20194;-46
2024/01/08 04:21:16;;;;;;;6.28;1.90;;;;;;;-1.96;100.00;103278.31;4941057;29;20206;-46
2024/01/08 04:23:42;;;;;;;3.47;1.60;;;;;;;-1.98;100.00;103270.31;4942883;29;20229;-47
2024/01/08 04:26:13;;;;;;;4.22;1.90;;;;;;;-1.94;100.00;103271.41;4940932;29;20202;-46
2024/01/08 04:28:39;;;;;;;3.72;1.83;;;;;;;-1.92;100.00;103281.16;4939278;29;20194;-47
2024/01/08 04:31:04;;;;;;;5.82;1.58;;;;;;;-1.93;100.00;103287.22;4943248;29;20664;-47
2024/01/08 04:33:30;;;;;;;6.15;1.90;;;;;;;-1.91;100.00;103297.81;4940013;29;20317;-46
2024/01/08 04:35:55;;;;;;;4.43;1.90;;;;;;;-1.87;100.00;103291.91;4942409;29;20615;-48
2024/01/08 04:38:21;;;;;;;3.60;1.83;;;;;;;-1.89;100.00;103289.19;4939731;29;20606;-48
2024/01/08 04:40:47;;;;;;;5.85;1.90;;;;;;;-1.88;100.00;103304.16;4944385;29;20536;-48
2024/01/08 04:43:12;;;;;;;3.92;2.05;;;;;;;-1.85;100.00;103315.66;4945998;29;20705;-47
2024/01/08 04:45:38;;;;;;;5.60;2.00;;;;;;;-1.87;100.00;103305.06;4940895;29;20210;-45
2024/01/08 04:48:04;;;;;;;3.72;1.60;;;;;;;-1.89;100.00;103309.31;4941844;29;20298;-46
2024/01/08 04:50:29;;;;;;;2.80;1.67;;;;;;;-1.90;100.00;103318.03;4944152;29;20213;-46
2024/01/08 04:52:55;;;;;;;3.65;1.60;;;;;;;-1.85;100.00;103313.03;4944338;29;20681;-45
2024/01/08 04:55:20;;;;;;;4.18;1.60;;;;;;;-1.85;100.00;103321.81;4945498;29;20199;-46
2024/01/08 04:57:48;;;;;;;4.88;2.08;;;;;;;-1.84;100.00;103320.97;4942901;29;20186;-47
2024/01/08 05:00:13;;;;;;;5.68;1.48;;;;;;;-1.82;100.00;103314.06;4944526;29;20270;-46
2024/01/08 05:02:39;;;;;;;4.47;1.95;;;;;;;-1.80;100.00;103322.94;4943881;29;20669;-44
2024/01/08 05:05:06;;;;;;;5.22;2.15;;;;;;;-1.85;100.00;103323.53;4940929;29;20207;-48
2024/01/08 05:07:31;;;;;;;7.90;2.00;;;;;;;-1.86;100.00;103327.88;4941122;29;20191;-46
2024/01/08 05:09:57;;;;;;;5.38;2.17;;;;;;;-1.84;100.00;103320.97;4945791;29;20794;-48
2024/01/08 05:12:22;;;;;;;3.40;2.00;;;;;;;-1.85;100.00;103337.56;4943680;29;20198;-47
2024/01/08 05:14:48;;;;;;;4.07;1.77;;;;;;;-1.86;100.00;103335.75;4944025;23;20247;-42
2024/01/08 05:17:14;;;;;;;4.47;1.85;;;;;;;-1.88;100.00;103337.38;4932477;29;20578;-44
2024/01/08 05:19:39;;;;;;;7.15;1.52;;;;;;;-1.90;100.00;103336.44;4932953;29;20183;-42
2024/01/08 05:22:05;;;;;;;4.57;1.58;;;;;;;-1.89;100.00;103340.84;4932652;29;20270;-43
2024/01/08 05:24:30;;;;;;;4.85;1.90;;;;;;;-1.88;100.00;103354.06;4933455;29;20207;-44
2024/01/08 05:26:55;;;;;;;7.88;2.13;;;;;;;-1.87;100.00;103350.63;4933986;29;20207;-43
2024/01/08 05:29:21;;;;;;;4.18;2.22;;;;;;;-1.89;100.00;103360.13;4932903;29;20265;-43
2024/01/08 05:31:46;;;;;;;2.35;1.63;;;;;;;-1.84;100.00;103362.09;4934219;29;20203;-43
2024/01/08 05:34:12;;;;;;;6.78;2.10;;;;;;;-1.83;100.00;103350.78;4933225;29;20203;-43
2024/01/08 05:36:41;;;;;;;5.28;1.80;;;;;;;-1.85;100.00;103355.97;4933540;29;20676;-43
2024/01/08 05:39:07;;;;;;;4.00;1.70;;;;;;;-1.82;100.00;103360.47;4935484;29;20202;-42
2024/01/08 05:41:32;;;;;;;3.80;1.52;;;;;;;-1.84;100.00;103356.84;4933890;29;20195;-41
2024/01/08 05:43:58;;;;;;;4.13;1.50;;;;;;;-1.84;100.00;103360.38;4932610;29;20207;-43
2024/01/08 05:46:24;;;;;;;4.70;1.90;;;;;;;-1.85;100.00;103349.81;4933972;29;20188;-43
2024/01/08 05:48:49;;;;;;;3.53;1.85;;;;;;;-1.89;100.00;103375.91;4929308;29;20226;-42
2024/01/08 05:51:17;;;;;;;2.63;1.73;;;;;;;-1.88;100.00;103355.78;4931358;29;20198;-43
2024/01/08 05:53:43;;;;;;;6.00;1.92;;;;;;;-1.90;100.00;103363.59;4931954;29;20254;-44
2024/01/08 05:56:08;;;;;;;3.95;2.22;;;;;;;-1.88;100.00;103368.91;4933633;29;20489;-43
2024/01/08 05:58:34;;;;;;;5.32;1.90;;;;;;;-1.90;100.00;103374.09;4931572;29;20187;-43
2024/01/08 06:00:59;;;;;;;5.93;1.67;;;;;;;-1.93;100.00;103373.91;4931616;29;20179;-42
2024/01/08 06:03:25;;;;;;;7.55;2.35;;;;;;;-1.92;100.00;103370.50;4931884;29;20231;-43
2024/01/08 06:05:51;;;;;;;6.30;2.08;;;;;;;-1.93;100.00;103378.28;4931565;29;20218;-44
2024/01/08 06:08:17;;;;;;;5.50;2.08;;;;;;;-1.95;100.00;103382.53;4931988;29;20187;-43
2024/01/08 06:10:43;;;;;;;4.75;1.77;;;;;;;-1.96;100.00;103391.25;4932181;29;20369;-44
2024/01/08 06:13:10;;;;;;;5.47;1.60;;;;;;;-1.95;100.00;103387.81;4929949;29;20318;-42
2024/01/08 06:15:36;;;;;;;6.80;2.33;;;;;;;-1.98;100.00;103391.16;4932101;29;20191;-44
2024/01/08 06:18:03;;;;;;;7.85;2.20;;;;;;;-1.97;100.00;103392.06;4931433;29;20187;-44
2024/01/08 06:20:28;;;;;;;5.85;1.85;;;;;;;-1.99;100.00;103383.19;4933796;29;20178;-42
2024/01/08 06:22:54;;;;;;;3.78;2.10;;;;;;;-2.00;100.00;103392.81;4932946;29;20198;-43
2024/01/08 06:25:19;;;;;;;6.97;1.80;;;;;;;-2.00;100.00;103386.66;4932674;29;20644;-42
2024/01/08 06:27:45;;;;;;;2.67;2.00;;;;;;;-1.99;100.00;103397.25;4932102;29;20183;-43
2024/01/08 06:30:11;;;;;;;10.27;2.17;;;;;;;-1.97;100.00;103393.00;4931614;29;20187;-44
2024/01/08 06:32:36;;;;;;;5.38;2.42;;;;;;;-2.08;100.00;103394.09;4933237;29;20191;-42
2024/01/08 06:35:02;;;;;;;5.97;2.17;;;;;;;-2.10;100.00;103396.66;4931127;29;20199;-42
2024/01/08 06:37:28;;;;;;;5.43;2.38;;;;;;;-2.05;100.00;103403.91;4932183;29;20936;-43
2024/01/08 06:39:54;;;;;;;3.67;2.13;;;;;;;-2.05;100.00;103407.44;4933799;29;20183;-42
2024/01/08 06:42:19;;;;;;;7.05;2.17;;;;;;;-2.08;100.00;103413.41;4931230;29;20194;-42
2024/01/08 06:44:45;;;;;;;8.60;2.50;;;;;;;-2.03;100.00;103404.84;4930442;29;20207;-44
2024/01/08 06:47:10;;;;;;;5.75;1.83;;;;;;;-2.02;100.00;103412.84;4931108;29;20203;-43
2024/01/08 06:49:36;;;;;;;3.95;2.42;;;;;;;-1.99;100.00;103409.47;4933294;29;20817;-44
2024/01/08 06:52:01;;;;;;;3.10;2.15;;;;;;;-1.98;100.00;103427.94;4931748;29;20198;-43
2024/01/08 06:54:27;;;;;;;4.43;2.20;;;;;;;-1.95;100.00;103416.69;4930461;29;20259;-42
2024/01/08 06:56:52;;;;;;;6.63;2.28;;;;;;;-1.96;100.00;103417.53;4929551;29;20234;-43
2024/01/08 06:59:18;;;;;;;4.55;2.72;;;;;;;-1.97;100.00;103424.53;4930718;29;20184;-42
2024/01/08 07:01:45;;;;;;;7.97;2.60;;;;;;;-1.97;100.00;103410.47;4930159;29;20677;-44
2024/01/08 07:04:10;;;;;;;4.05;2.10;;;;;;;-1.98;100.00;103427.06;4932028;29;20214;-45
2024/01/08 07:06:36;;;;;;;4.28;2.35;;;;;;;-1.96;100.00;103435.94;4933464;29;20195;-44
2024/01/08 07:09:02;;;;;;;5.15;2.20;;;;;;;-1.98;100.00;103441.09;4929712;29;20210;-43
2024/01/08 07:11:28;;;;;;;3.17;1.80;;;;;;;-1.97;100.00;103439.34;4930054;29;20187;-42
2024/01/08 07:13:53;;;;;;;8.55;2.42;;;;;;;-1.94;100.00;103444.78;4927423;29;20555;-43
2024/01/08 07:16:19;;;;;;;5.65;2.50;;;;;;;-1.94;100.00;103456.19;4928513;29;20205;-42
2024/01/08 07:18:45;;;;;;;5.25;2.17;;;;;;;-1.93;100.00;103449.22;4913934;29;20490;-43
2024/01/08 07:21:14;;;;;;;5.32;2.00;;;;;;;-1.90;100.00;103455.56;4930398;29;20638;-42
2024/01/08 07:23:39;;;;;;;5.43;1.98;;;;;;;-1.90;100.00;103476.56;4931152;29;20372;-42
2024/01/08 07:26:05;;;;;;;7.28;2.20;;;;;;;-1.89;100.00;103475.75;4930572;29;20765;-43
2024/01/08 07:28:30;;;;;;;3.97;2.00;;;;;;;-1.89;100.00;103464.34;4930111;29;20266;-42
2024/01/08 07:30:56;;;;;;;3.97;2.22;;;;;;;-1.87;100.00;103482.00;4931916;29;20271;-44
2024/01/08 07:33:21;;;;;;;3.45;2.42;;;;;;;-1.84;100.00;103475.09;4931592;29;20387;-42
2024/01/08 07:35:47;;;;;;;5.80;2.15;;;;;;;-1.84;100.00;103485.59;4931030;29;20218;-43
2024/01/08 07:38:13;;;;;;;3.70;2.42;;;;;;;-1.90;100.00;103494.06;4930711;29;20233;-43
2024/01/08 07:40:38;;;;;;;5.38;2.35;;;;;;;-1.93;100.00;103496.50;4929518;29;20701;-42
2024/01/08 07:43:04;;;;;;;5.65;2.28;;;;;;;-1.94;100.00;103492.09;4931902;29;20243;-42
2024/01/08 07:45:29;;;;;;;3.90;2.13;;;;;;;-1.94;100.00;103505.22;4929157;29;20213;-39
2024/01/08 07:47:56;;;;;;;6.15;2.20;;;;;;;-1.94;100.00;103506.13;4928783;29;20645;-40
2024/01/08 07:50:22;;;;;;;3.17;2.20;;;;;;;-1.91;100.00;103511.53;4929259;29;20199;-42
2024/01/08 07:52:47;;;;;;;4.38;2.67;;;;;;;-1.97;100.00;103512.91;4926547;29;20207;-41
2024/01/08 07:55:13;;;;;;;4.47;2.63;;;;;;;-1.94;100.00;103518.38;4928651;29;20211;-41
2024/01/08 07:57:38;;;;;;;8.10;2.30;;;;;;;-1.94;100.00;103507.84;4929733;29;20218;-42
2024/01/08 08:00:08;;;;;;;5.47;2.70;;;;;;;-1.95;100.00;103525.31;4931943;29;20190;-42
2024/01/08 08:02:34;;;;;;;6.57;2.78;;;;;;;-1.93;100.00;103525.41;4931069;29;20237;-39
2024/01/08 08:05:00;;;;;;;3.45;1.95;;;;;;;-1.91;100.00;103526.41;4930568;29;20726;-42
2024/01/08 08:07:27;;;;;;;7.22;2.50;;;;;;;-1.90;100.00;103525.59;4929926;29;20201;-41
2024/01/08 08:09:54;;;;;;;5.95;2.33;;;;;;;-1.89;100.00;103535.28;4931480;29;20191;-41
2024/01/08 08:12:20;;;;;;;6.68;2.13;;;;;;;-1.89;100.00;103540.53;4931207;29;20203;-41
2024/01/08 08:14:47;;;;;;;5.32;3.38;;;;;;;-1.89;100.00;103543.16;4933500;29;20395;-43
2024/01/08 08:17:13;;;;;;;6.80;2.92;;;;;;;-1.88;100.00;103545.88;4934890;29;20238;-40
2024/01/08 08:19:41;;;;;;;5.03;2.63;;;;;;;-1.85;100.00;103546.88;4934794;29;20175;-40
2024/01/08 08:22:07;;;;;;;5.50;2.58;;;;;;;-1.85;100.00;103550.41;4916803;29;20193;-41
2024/01/08 08:24:33;;;;;;;6.05;2.45;;;;;;;-1.87;100.00;103562.53;4933177;29;20641;-42
2024/01/08 08:27:00;;;;;;;5.63;2.35;;;;;;;-1.88;100.00;103577.41;4934287;29;20191;-43
2024/01/08 08:29:25;;;;;;;3.30;2.28;;;;;;;-1.87;100.00;103576.59;4932568;29;20198;-43
2024/01/08 08:31:51;;;;;;;5.00;2.53;;;;;;;-1.89;100.00;103575.59;4934758;29;20753;-42
2024/01/08 08:34:16;;;;;;;4.63;2.35;;;;;;;-1.91;100.00;103576.31;4933855;29;20217;-42
2024/01/08 08:36:42;;;;;;;9.95;2.80;;;;;;;-1.92;100.00;103575.44;4934543;29;20313;-41
2024/01/08 08:39:07;;;;;;;4.38;2.20;;;;;;;-1.90;100.00;103588.66;4933989;29;20643;-44
2024/01/08 08:41:33;;;;;;;7.50;2.85;;;;;;;-1.89;100.00;103585.19;4934593;29;20646;-43
2024/01/08 08:43:58;;;;;;;4.53;2.45;;;;;;;-1.89;100.00;103591.34;4934285;29;20289;-44
2024/01/08 08:46:24;;;;;;;5.45;2.63;;;;;;;-1.89;100.00;103606.22;4934669;29;20206;-42
2024/01/08 08:48:49;;;;;;;6.45;3.35;;;;;;;-1.81;100.00;103604.06;4934618;29;20168;-41
2024/01/08 08:51:15;;;;;;;2.70;2.05;;;;;;;-1.92;100.00;103616.56;4934442;29;20196;-43
2024/01/08 08:53:40;;;;;;;5.38;2.53;;;;;;;-1.91;100.00;103606.13;4934126;29;20282;-43
2024/01/08 08:56:06;;;;;;;5.32;2.40;;;;;;;-1.95;100.00;103617.25;4917140;29;20187;-42
2024/01/08 08:58:31;;;;;;;3.80;2.35;;;;;;;-1.95;100.00;103611.13;4933250;29;20278;-40
2024/01/08 09:00:57;;;;;;;6.38;2.60;;;;;;;-1.92;100.00;103612.22;4934127;29;20214;-44
2024/01/08 09:03:24;;;;;;;6.20;2.72;;;;;;;-1.88;100.00;103627.34;4932806;29;20561;-41
2024/01/08 09:05:49;;;;;;;6.07;3.08;;;;;;;-1.82;100.00;103616.25;4933556;29;20206;-45
2024/01/08 09:08:16;;;;;;;10.35;3.13;;;;;;;-1.83;100.00;103622.34;4933006;29;20653;-43
2024/01/08 09:10:42;;;;;;;7.28;3.00;;;;;;;-1.79;100.00;103623.41;4931418;29;20191;-43
2024/01/08 09:13:07;;;;;;;4.45;2.70;;;;;;;-1.75;100.00;103614.88;4933585;29;20187;-43
2024/01/08 09:15:33;;;;;;;3.58;2.53;;;;;;;-1.79;100.00;103629.59;4934971;29;20664;-42
2024/01/08 09:17:58;;;;;;;7.70;2.75;;;;;;;-1.79;100.00;103634.84;4934720;29;20184;-42
2024/01/08 09:20:24;;;;;;;6.85;2.40;;;;;;;-1.76;100.00;103624.50;4932285;29;20231;-39
2024/01/08 09:22:49;;;;;;;5.25;2.55;;;;;;;-1.72;100.00;103642.25;4931791;29;20496;-41
2024/01/08 09:25:15;;;;;;;9.13;2.30;;;;;;;-1.75;100.00;103617.50;4932223;29;20215;-41
2024/01/08 09:27:42;;;;;;;6.63;2.92;;;;;;;-1.71;100.00;103630.03;4934818;29;20195;-40
2024/01/08 09:30:08;;;;;;;4.82;2.50;;;;;;;-1.71;100.00;103635.28;4932915;29;20571;-43
2024/01/08 09:32:33;;;;;;;7.70;2.30;;;;;;;-1.79;100.00;103641.81;4933185;29;20670;-42
2024/01/08 09:34:59;;;;;;;6.90;2.42;;;;;;;-1.84;100.00;103633.66;4932671;29;20604;-41
2024/01/08 09:37:25;;;;;;;4.55;2.40;;;;;;;-1.81;100.00;103631.22;4932694;29;20183;-42
2024/01/08 09:39:50;;;;;;;6.10;2.50;;;;;;;-1.76;100.00;103642.91;4935050;29;20996;-43
2024/01/08 09:42:19;;;;;;;7.30;2.33;;;;;;;-1.73;100.00;103639.53;4916145;29;20194;-44
2024/01/08 09:44:53;;;;;;;4.72;2.05;;;;;;;-1.79;100.00;103642.75;4932222;29;20211;-39
2024/01/08 09:47:19;;;;;;;8.95;2.60;;;;;;;-1.84;100.00;103643.28;4935172;29;20206;-39
2024/01/08 09:49:46;;;;;;;5.07;2.17;;;;;;;-1.80;100.00;103643.53;4933717;29;20192;-43
2024/01/08 09:52:16;;;;;;;6.13;2.58;;;;;;;-1.80;100.00;103645.25;4933338;29;20195;-43
2024/01/08 09:54:44;;;;;;;3.28;1.95;;;;;;;-1.89;100.00;103637.75;4933067;29;20219;-45
2024/01/08 09:57:10;;;;;;;4.72;2.35;;;;;;;-1.85;100.00;103647.63;4933012;29;20202;-41
2024/01/08 09:59:36;;;;;;;4.28;2.30;;;;;;;-1.74;100.00;103640.38;4932302;29;20203;-40
2024/01/08 10:02:02;;;;;;;6.65;2.95;;;;;;;-1.77;100.00;103649.00;4931077;29;20187;-42
2024/01/08 10:04:29;;;;;;;5.03;2.50;;;;;;;-1.78;100.00;103644.53;4932389;29;20226;-41
2024/01/08 10:07:08;;;;;;;5.95;3.00;;;;;;;-1.77;100.00;103632.28;4930381;29;20195;-41
2024/01/08 10:09:34;;;;;;;6.75;2.65;;;;;;;-1.82;100.00;103642.53;4932385;29;20277;-41
2024/01/08 10:12:00;;;;;;;6.47;2.58;;;;;;;-1.88;100.00;103643.09;4932994;29;20194;-42
2024/01/08 10:14:26;;;;;;;6.68;2.42;;;;;;;-1.81;100.00;103632.97;4933358;29;20313;-43
2024/01/08 10:16:53;;;;;;;4.28;2.75;;;;;;;-1.78;100.00;103641.91;4933188;29;20183;-42
2024/01/08 10:19:23;;;;;;;4.85;2.65;;;;;;;-1.68;100.00;103639.00;4932981;29;20247;-45
2024/01/08 10:22:06;;;;;;;6.25;2.58;;;;;;;-1.57;100.00;103636.97;4933483;29;20255;-40
2024/01/08 10:24:31;;;;;;;3.97;2.47;;;;;;;-1.59;100.00;103635.09;4931128;29;20215;-41
2024/01/08 10:26:57;;;;;;;6.13;2.78;;;;;;;-1.64;100.00;103640.09;4932256;29;20183;-41
2024/01/08 10:29:24;;;;;;;6.00;2.92;;;;;;;-1.44;100.00;103633.34;4932495;29;20187;-42
2024/01/08 10:31:50;;;;;;;4.63;2.58;;;;;;;-1.53;100.00;103632.78;4932916;29;20187;-43
2024/01/08 10:34:16;;;;;;;4.97;3.00;;;;;;;-1.40;100.00;103634.38;4931881;29;20216;-43
2024/01/08 10:36:43;;;;;;;4.47;2.72;;;;;;;-1.51;100.00;103637.34;4931913;29;20195;-42
2024/01/08 10:39:09;;;;;;;4.63;2.97;;;;;;;-1.46;100.00;103627.97;4931890;29;20246;-42
2024/01/08 10:41:36;;;;;;;5.95;2.83;;;;;;;-1.28;100.00;103628.09;4932085;29;20202;-43
2024/01/08 10:44:01;;;;;;;8.57;2.45;;;;;;;-1.41;100.00;103638.75;4932819;29;20789;-43
2024/01/08 10:46:33;;;;;;;9.95;2.97;;;;;;;-1.37;100.00;103619.69;4933986;29;20613;-44
2024/01/08 10:49:01;;;;;;;6.88;2.80;;;;;;;-1.42;100.00;103617.63;4931957;29;20184;-41
2024/01/08 10:51:27;;;;;;;8.32;2.42;;;;;;;-1.31;100.00;103621.78;4931228;29;20289;-42
2024/01/08 10:53:54;;;;;;;4.05;2.67;;;;;;;-1.20;100.00;103623.28;4930450;29;20704;-41
2024/01/08 10:56:24;;;;;;;4.35;2.55;;;;;;;-1.14;100.00;103615.69;4932234;29;20186;-41
2024/01/08 10:58:59;;;;;;;8.05;2.40;;;;;;;-0.93;100.00;103621.22;4933091;29;20187;-40
2024/01/08 11:01:27;;;;;;;6.13;2.47;;;;;;;-0.87;100.00;103623.31;4931799;29;20191;-41
2024/01/08 11:03:52;;;;;;;4.10;2.08;;;;;;;-0.95;100.00;103621.97;4932743;29;20199;-41
2024/01/08 11:06:21;;;;;;;7.28;2.50;;;;;;;-0.97;100.00;103620.97;4932841;29;20219;-42
2024/01/08 11:08:47;;;;;;;4.25;2.15;;;;;;;-1.01;100.00;103612.00;4935617;29;20190;-43
2024/01/08 11:11:15;;;;;;;4.43;2.75;;;;;;;-0.87;100.00;103618.94;4934120;29;20183;-39
2024/01/08 11:13:40;;;;;;;6.20;2.60;;;;;;;-1.00;100.00;103621.72;4933709;29;20214;-41